createdAt,value
2022-09-05T00:00:23.199Z,19.90
2022-09-05T00:03:08.835Z,19.92
2022-09-05T00:06:06.174Z,19.88
2022-09-05T00:08:51.190Z,19.86
2022-09-05T00:11:40.349Z,19.76
2022-09-05T00:15:14.533Z,19.77
2022-09-05T00:18:00.183Z,19.67
2022-09-05T00:24:22.347Z,19.59
2022-09-05T00:24:24.987Z,19.49
2022-09-05T00:26:24.418Z,19.46
2022-09-05T00:29:08.143Z,19.34
2022-09-05T00:31:57.081Z,19.34
2022-09-05T00:34:50.949Z,19.22
2022-09-05T00:37:32.264Z,19.19
2022-09-05T00:40:19.174Z,19.12
2022-09-05T00:42:51.797Z,19.06
2022-09-05T00:45:28.892Z,19.11
2022-09-05T00:48:04.431Z,18.94
2022-09-05T00:50:43.426Z,19.00
2022-09-05T00:53:18.399Z,18.94
2022-09-05T00:55:59.150Z,18.96
2022-09-05T00:58:52.371Z,18.88
2022-09-05T01:01:31.710Z,18.79
2022-09-05T01:04:28.473Z,18.76
2022-09-05T01:07:12.922Z,18.74
2022-09-05T01:09:52.684Z,18.68
2022-09-05T01:12:50.103Z,18.66
2022-09-05T01:15:32.133Z,18.62
2022-09-05T01:18:14.771Z,18.64
2022-09-05T01:21:03.048Z,18.57
2022-09-05T01:23:58.767Z,18.56
2022-09-05T01:26:51.392Z,18.53
2022-09-05T01:29:28.862Z,18.45
2022-09-05T01:32:28.629Z,18.51
2022-09-05T01:35:23.689Z,18.40
2022-09-05T01:38:03.261Z,18.34
2022-09-05T01:40:44.016Z,18.24
2022-09-05T01:43:28.072Z,18.19
2022-09-05T01:46:10.239Z,18.24
2022-09-05T01:48:51.668Z,18.22
2022-09-05T01:51:31.623Z,18.15
2022-09-05T01:54:24.508Z,18.19
2022-09-05T01:57:09.004Z,18.19
2022-09-05T01:59:49.795Z,18.11
2022-09-05T02:02:28.141Z,17.99
2022-09-05T02:05:47.503Z,18.03
2022-09-05T02:08:36.045Z,17.97
2022-09-05T02:11:07.923Z,17.92
2022-09-05T02:14:00.511Z,17.95
2022-09-05T02:16:36.357Z,17.98
2022-09-05T02:19:15.084Z,17.93
2022-09-05T02:21:56.528Z,17.94
2022-09-05T02:24:34.926Z,17.91
2022-09-05T02:27:49.001Z,17.86
2022-09-05T02:30:17.435Z,17.88
2022-09-05T02:32:58.233Z,17.87
2022-09-05T02:35:33.232Z,17.92
2022-09-05T02:40:23.300Z,17.81
2022-09-05T02:45:05.938Z,17.74
2022-09-05T02:45:20.534Z,17.71
2022-09-05T02:46:52.371Z,17.68
2022-09-05T02:52:03.863Z,17.68
2022-09-05T02:57:25.318Z,17.57
2022-09-05T02:57:33.868Z,17.48
2022-09-05T02:58:42.781Z,17.37
2022-09-05T03:01:28.030Z,17.38
2022-09-05T03:04:05.011Z,17.43
2022-09-05T03:06:38.303Z,17.44
2022-09-05T03:09:22.787Z,17.45
2022-09-05T03:12:29.953Z,17.26
2022-09-05T03:15:32.192Z,17.09
2022-09-05T03:18:37.982Z,17.07
2022-09-05T03:21:48.093Z,16.85
2022-09-05T03:24:42.122Z,16.73
2022-09-05T03:28:07.067Z,16.57
2022-09-05T03:30:56.697Z,16.48
2022-09-05T03:33:54.774Z,16.56
2022-09-05T03:37:00.282Z,16.60
2022-09-05T03:40:16.207Z,16.69
2022-09-05T03:43:07.831Z,16.72
2022-09-05T03:46:04.883Z,16.63
2022-09-05T03:49:02.792Z,16.74
2022-09-05T03:57:06.779Z,16.66
2022-09-05T03:57:23.793Z,16.72
2022-09-05T03:58:36.693Z,16.62
2022-09-05T04:08:16.456Z,16.47
2022-09-05T04:08:28.550Z,16.55
2022-09-05T04:10:28.733Z,16.41
2022-09-05T04:13:04.968Z,16.65
2022-09-05T04:15:40.119Z,16.63
2022-09-05T04:18:25.762Z,16.66
2022-09-05T04:21:06.585Z,16.63
2022-09-05T04:23:48.256Z,16.44
2022-09-05T04:26:46.994Z,16.35
2022-09-05T04:29:25.318Z,16.18
2022-09-05T04:32:17.882Z,16.18
2022-09-05T04:35:11.806Z,16.20
2022-09-05T04:37:50.104Z,16.24
2022-09-05T04:40:38.234Z,16.24
2022-09-05T04:43:12.537Z,16.30
2022-09-05T04:45:45.699Z,16.48
2022-09-05T04:48:21.383Z,16.64
2022-09-05T04:51:06.098Z,16.68
2022-09-05T04:54:01.898Z,16.79
2022-09-05T04:56:39.118Z,16.71
2022-09-05T05:01:25.826Z,16.77
2022-09-05T05:06:00.846Z,16.82
2022-09-05T05:06:11.745Z,16.88
2022-09-05T05:08:17.225Z,16.96
2022-09-05T05:17:35.326Z,16.99
2022-09-05T05:18:08.799Z,16.99
2022-09-05T05:18:10.905Z,16.95
2022-09-05T05:20:39.933Z,17.05
2022-09-05T05:23:07.427Z,17.06
2022-09-05T05:25:47.132Z,17.11
2022-09-05T05:28:24.747Z,17.07
2022-09-05T05:30:58.265Z,17.05
2022-09-05T05:33:35.514Z,17.03
2022-09-05T05:36:07.542Z,17.00
2022-09-05T05:38:45.454Z,17.00
2022-09-05T05:41:21.953Z,17.05
2022-09-05T05:43:52.644Z,17.07
2022-09-05T05:46:35.220Z,17.10
2022-09-05T05:49:33.247Z,17.17
2022-09-05T05:52:55.254Z,17.26
2022-09-05T05:55:57.302Z,17.20
2022-09-05T05:59:03.080Z,17.30
2022-09-05T06:02:04.939Z,17.41
2022-09-05T06:05:08.676Z,17.30
2022-09-05T06:11:20.519Z,17.42
2022-09-05T06:14:56.180Z,17.26
2022-09-05T06:15:07.081Z,17.36
2022-09-05T06:17:54.670Z,17.39
2022-09-05T06:22:04.552Z,17.49
2022-09-05T06:24:21.283Z,17.79
2022-09-05T06:27:25.125Z,17.97
2022-09-05T06:30:01.129Z,18.18
2022-09-05T06:32:55.315Z,18.45
2022-09-05T06:35:35.981Z,18.62
2022-09-05T06:38:27.581Z,18.66
2022-09-05T06:41:14.310Z,18.50
2022-09-05T06:44:15.351Z,18.31
2022-09-05T06:46:55.311Z,18.40
2022-09-05T06:49:48.098Z,18.59
2022-09-05T06:52:56.449Z,18.26
2022-09-05T06:55:50.416Z,18.57
2022-09-05T06:58:54.990Z,18.69
2022-09-05T07:01:53.806Z,18.59
2022-09-05T07:05:24.552Z,19.01
2022-09-05T07:07:27.962Z,19.55
2022-09-05T07:10:16.720Z,19.94
2022-09-05T07:12:58.422Z,20.52
2022-09-05T07:15:38.534Z,21.73
2022-09-05T07:18:15.069Z,22.99
2022-09-05T07:21:17.458Z,23.21
2022-09-05T07:24:08.754Z,22.81
2022-09-05T07:26:51.954Z,23.42
2022-09-05T07:29:30.700Z,24.16
2022-09-05T07:32:02.371Z,24.40
2022-09-05T07:34:32.614Z,24.33
2022-09-05T07:37:14.789Z,23.57
2022-09-05T07:39:51.772Z,23.15
2022-09-05T07:42:26.178Z,23.06
2022-09-05T07:45:03.132Z,22.50
2022-09-05T07:47:36.186Z,22.00
2022-09-05T07:51:00.701Z,21.70
2022-09-05T07:57:04.125Z,22.06
2022-09-05T07:57:05.171Z,21.88
2022-09-05T07:58:50.551Z,22.17
2022-09-05T08:01:23.122Z,21.72
2022-09-05T08:03:57.382Z,21.33
2022-09-05T08:07:46.986Z,21.26
2022-09-05T08:10:09.366Z,21.60
2022-09-05T08:12:18.322Z,21.83
2022-09-05T08:15:13.925Z,22.10
2022-09-05T08:17:57.837Z,22.99
2022-09-05T08:20:34.391Z,23.52
2022-09-05T08:23:10.309Z,24.49
2022-09-05T08:25:56.755Z,24.79
2022-09-05T08:28:39.168Z,24.28
2022-09-05T08:31:13.285Z,24.00
2022-09-05T08:33:44.715Z,23.45
2022-09-05T08:36:25.415Z,22.91
2022-09-05T08:38:54.731Z,22.57
2022-09-05T08:41:43.215Z,22.58
2022-09-05T08:46:36.267Z,22.46
2022-09-05T08:47:23.565Z,22.59
2022-09-05T08:50:17.880Z,22.19
2022-09-05T08:52:56.178Z,22.20
2022-09-05T08:55:35.826Z,22.47
2022-09-05T08:58:22.707Z,22.60
2022-09-05T09:01:00.280Z,22.33
2022-09-05T09:03:42.399Z,22.30
2022-09-05T09:06:44.487Z,22.92
2022-09-05T09:09:43.898Z,22.93
2022-09-05T09:12:39.429Z,22.73
2022-09-05T09:15:17.521Z,22.72
2022-09-05T09:17:47.723Z,23.51
2022-09-05T09:20:33.593Z,24.00
2022-09-05T09:23:06.902Z,24.60
2022-09-05T09:26:06.725Z,23.96
2022-09-05T09:28:50.458Z,24.08
2022-09-05T09:31:39.500Z,24.63
2022-09-05T09:34:36.904Z,24.34
2022-09-05T09:37:49.823Z,23.89
2022-09-05T09:40:52.346Z,23.25
2022-09-05T09:43:52.829Z,23.34
2022-09-05T09:46:34.292Z,23.46
2022-09-05T09:49:28.381Z,23.55
2022-09-05T09:52:40.274Z,23.05
2022-09-05T09:55:46.442Z,22.76
2022-09-05T09:58:35.040Z,22.94
2022-09-05T10:01:35.607Z,23.11
2022-09-05T10:10:33.052Z,23.22
2022-09-05T10:10:50.234Z,23.22
2022-09-05T10:11:36.142Z,22.96
2022-09-05T10:14:36.758Z,22.81
2022-09-05T10:17:24.218Z,23.20
2022-09-05T10:20:29.720Z,22.95
2022-09-05T10:23:16.861Z,23.34
2022-09-05T10:26:37.359Z,23.39
2022-09-05T10:29:35.143Z,23.27
2022-09-05T10:35:05.160Z,23.09
2022-09-05T10:35:12.865Z,22.95
2022-09-05T10:37:51.443Z,23.44
2022-09-05T10:40:24.166Z,23.77
2022-09-05T10:43:01.203Z,23.72
2022-09-05T10:45:40.533Z,23.54
2022-09-05T10:48:18.667Z,23.31
2022-09-05T10:50:54.033Z,22.79
2022-09-05T10:53:39.175Z,23.13
2022-09-05T10:56:14.463Z,23.62
2022-09-05T11:01:37.569Z,23.63
2022-09-05T11:02:29.184Z,23.76
2022-09-05T11:05:05.310Z,23.73
2022-09-05T11:07:41.886Z,23.69
2022-09-05T11:10:17.401Z,23.63
2022-09-05T11:13:05.999Z,23.79
2022-09-05T11:16:03.814Z,23.72
2022-09-05T11:18:57.148Z,23.32
2022-09-05T11:21:46.151Z,23.31
2022-09-05T11:24:36.983Z,23.38
2022-09-05T11:27:25.266Z,23.36
2022-09-05T11:29:59.535Z,23.32
2022-09-05T11:39:50.383Z,23.46
2022-09-05T11:39:58.356Z,23.35
2022-09-05T11:40:04.009Z,23.57
2022-09-05T11:42:33.269Z,23.89
2022-09-05T11:45:22.302Z,24.17
2022-09-05T11:48:30.173Z,23.61
2022-09-05T11:51:11.530Z,23.51
2022-09-05T11:54:04.128Z,23.45
2022-09-05T11:57:30.538Z,22.73
2022-09-05T12:00:30.728Z,22.29
2022-09-05T12:03:57.357Z,22.80
2022-09-05T12:06:56.522Z,22.98
2022-09-05T12:09:37.820Z,22.29
2022-09-05T12:12:41.626Z,22.27
2022-09-05T12:15:27.808Z,22.25
2022-09-05T12:18:21.578Z,22.31
2022-09-05T12:21:03.406Z,22.95
2022-09-05T12:24:36.712Z,22.49
2022-09-05T12:27:40.714Z,22.97
2022-09-05T12:29:48.981Z,22.63
2022-09-05T12:34:06.483Z,23.14
2022-09-05T12:36:04.777Z,22.89
2022-09-05T12:41:01.130Z,22.77
2022-09-05T12:41:42.814Z,22.79
2022-09-05T12:44:45.655Z,22.95
2022-09-05T12:47:20.157Z,22.61
2022-09-05T12:50:02.993Z,22.41
2022-09-05T12:52:43.442Z,22.61
2022-09-05T12:55:20.705Z,22.58
2022-09-05T13:02:54.955Z,22.44
2022-09-05T13:03:11.797Z,22.19
2022-09-05T13:03:59.354Z,22.13
2022-09-05T13:06:33.158Z,22.07
2022-09-05T13:09:07.135Z,22.14
2022-09-05T13:14:56.826Z,21.95
2022-09-05T13:15:06.065Z,22.25
2022-09-05T13:17:44.748Z,22.27
2022-09-05T13:20:19.414Z,22.23
2022-09-05T13:22:51.100Z,22.10
2022-09-05T13:25:27.301Z,21.88
2022-09-05T13:28:02.514Z,21.94
2022-09-05T13:35:11.005Z,21.96
2022-09-05T13:38:15.036Z,21.69
2022-09-05T13:38:19.070Z,21.73
2022-09-05T13:39:28.311Z,21.76
2022-09-05T13:42:03.722Z,22.07
2022-09-05T13:44:40.517Z,22.01
2022-09-05T13:47:29.768Z,22.01
2022-09-05T13:50:14.564Z,22.35
2022-09-05T13:52:47.481Z,22.77
2022-09-05T13:55:24.478Z,22.96
2022-09-05T13:57:57.658Z,23.26
2022-09-05T14:01:12.415Z,23.45
2022-09-05T14:04:11.974Z,23.51
2022-09-05T14:07:46.607Z,24.24
2022-09-05T14:11:03.172Z,24.47
2022-09-05T14:13:47.561Z,25.17
2022-09-05T14:16:22.514Z,25.37
2022-09-05T14:19:09.995Z,25.26
2022-09-05T14:21:41.619Z,25.23
2022-09-05T14:24:15.844Z,25.53
2022-09-05T14:26:48.390Z,25.92
2022-09-05T14:29:22.550Z,26.01
2022-09-05T14:37:37.163Z,26.44
2022-09-05T14:37:43.970Z,25.89
2022-09-05T14:38:09.171Z,25.73
2022-09-05T14:41:35.130Z,25.28
2022-09-05T14:44:41.934Z,25.13
2022-09-05T14:47:47.559Z,24.95
2022-09-05T14:50:40.306Z,24.93
2022-09-05T14:57:23.745Z,25.58
2022-09-05T15:02:54.723Z,26.58
2022-09-05T15:03:00.497Z,26.42
2022-09-05T15:05:21.368Z,26.83
2022-09-05T15:07:58.623Z,26.71
2022-09-05T15:12:14.754Z,26.76
2022-09-05T15:13:25.847Z,26.56
2022-09-05T15:16:03.003Z,25.63
2022-09-05T15:18:38.490Z,25.69
2022-09-05T15:21:33.144Z,25.17
2022-09-05T15:24:21.314Z,25.17
2022-09-05T15:26:53.032Z,25.00
2022-09-05T15:29:25.044Z,24.74
2022-09-05T15:32:09.244Z,24.59
2022-09-05T15:34:40.065Z,24.68
2022-09-05T15:37:29.341Z,24.34
2022-09-05T15:40:23.124Z,24.72
2022-09-05T15:42:55.576Z,24.53
2022-09-05T15:45:28.120Z,24.69
2022-09-05T15:48:08.496Z,24.81
2022-09-05T15:50:44.351Z,25.16
2022-09-05T15:53:23.478Z,25.23
2022-09-05T15:55:59.885Z,25.35
2022-09-05T15:58:53.950Z,25.57
2022-09-05T16:01:35.917Z,25.42
2022-09-05T16:06:53.856Z,25.52
2022-09-05T16:10:43.605Z,25.27
2022-09-05T16:10:45.711Z,25.48
2022-09-05T16:12:51.711Z,24.82
2022-09-05T16:18:10.335Z,24.70
2022-09-05T16:23:15.839Z,24.62
2022-09-05T16:23:33.474Z,24.59
2022-09-05T16:24:05.870Z,24.52
2022-09-05T16:26:40.821Z,24.60
2022-09-05T16:29:23.882Z,24.50
2022-09-05T16:32:16.056Z,24.34
2022-09-05T16:34:54.457Z,24.27
2022-09-05T16:37:32.132Z,24.17
2022-09-05T16:40:10.634Z,24.11
2022-09-05T16:42:46.548Z,23.97
2022-09-05T16:45:29.857Z,23.63
2022-09-05T16:48:09.730Z,23.63
2022-09-05T16:50:49.270Z,23.63
2022-09-05T16:53:31.036Z,23.56
2022-09-05T16:56:05.574Z,23.38
2022-09-05T16:58:38.294Z,23.29
2022-09-05T17:01:30.421Z,23.18
2022-09-05T17:04:08.057Z,23.14
2022-09-05T17:06:45.671Z,23.06
2022-09-05T17:09:22.574Z,23.43
2022-09-05T17:12:00.704Z,23.58
2022-09-05T17:14:35.455Z,23.91
2022-09-05T17:18:18.223Z,24.10
2022-09-05T17:20:05.925Z,23.96
2022-09-05T17:28:01.149Z,23.93
2022-09-05T17:29:31.264Z,23.30
2022-09-05T17:29:34.130Z,23.65
2022-09-05T17:31:53.547Z,23.02
2022-09-05T17:34:48.119Z,22.90
2022-09-05T17:37:47.450Z,22.74
2022-09-05T17:40:39.078Z,22.72
2022-09-05T17:43:13.320Z,22.67
2022-09-05T17:46:13.464Z,22.77
2022-09-05T17:49:18.807Z,22.80
2022-09-05T17:52:18.746Z,22.79
2022-09-05T17:54:49.611Z,22.65
2022-09-05T17:57:42.405Z,22.57
2022-09-05T18:00:58.403Z,22.39
2022-09-05T18:04:16.532Z,22.43
2022-09-05T18:07:00.308Z,22.37
2022-09-05T18:10:14.712Z,22.31
2022-09-05T18:13:13.519Z,22.10
2022-09-05T18:16:11.022Z,22.07
2022-09-05T18:19:32.888Z,21.93
2022-09-05T18:21:48.555Z,21.96
2022-09-05T18:24:33.312Z,21.94
2022-09-05T18:27:35.033Z,21.98
2022-09-05T18:30:05.949Z,22.02
2022-09-05T18:32:48.099Z,21.94
2022-09-05T18:35:36.181Z,21.90
2022-09-05T18:38:50.524Z,21.82
2022-09-05T18:41:22.647Z,21.73
2022-09-05T18:44:13.929Z,21.69
2022-09-05T18:46:51.123Z,21.62
2022-09-05T18:50:21.699Z,21.66
2022-09-05T18:52:23.202Z,21.63
2022-09-05T18:56:10.402Z,21.55
2022-09-05T18:57:54.062Z,21.52
2022-09-05T19:00:44.272Z,21.49
2022-09-05T19:03:20.083Z,21.41
2022-09-05T19:06:34.337Z,21.34
2022-09-05T19:08:54.005Z,21.26
2022-09-05T19:11:28.953Z,21.31
2022-09-05T19:14:26.660Z,21.21
2022-09-05T19:16:51.135Z,21.26
2022-09-05T19:19:24.836Z,21.23
2022-09-05T19:22:06.080Z,21.21
2022-09-05T19:24:46.217Z,21.12
2022-09-05T19:30:47.408Z,21.10
2022-09-05T19:36:49.281Z,21.10
2022-09-05T19:36:57.370Z,21.06
2022-09-05T19:37:05.474Z,21.03
2022-09-05T19:40:04.394Z,20.93
2022-09-05T19:47:35.257Z,20.90
2022-09-05T19:47:36.819Z,20.89
2022-09-05T19:47:56.129Z,20.80
2022-09-05T19:50:21.216Z,20.88
2022-09-05T19:52:53.258Z,20.89
2022-09-05T19:55:24.341Z,20.84
2022-09-05T19:58:19.317Z,20.86
2022-09-05T20:01:00.998Z,20.89
2022-09-05T20:03:35.475Z,20.92
2022-09-05T20:06:24.735Z,20.85
2022-09-05T20:09:09.979Z,20.78
2022-09-05T20:11:45.187Z,20.77
2022-09-05T20:14:23.944Z,20.78
2022-09-05T20:16:56.085Z,20.79
2022-09-05T20:19:28.730Z,20.70
2022-09-05T20:22:11.490Z,20.82
2022-09-05T20:24:49.324Z,20.74
2022-09-05T20:27:18.092Z,20.78
2022-09-05T20:29:56.930Z,20.73
2022-09-05T20:32:38.587Z,20.71
2022-09-05T20:40:27.788Z,20.63
2022-09-05T20:43:16.586Z,20.62
2022-09-05T20:43:23.466Z,20.60
2022-09-05T20:43:58.045Z,20.51
2022-09-05T20:49:38.136Z,20.56
2022-09-05T20:54:19.242Z,20.54
2022-09-05T20:54:27.972Z,20.51
2022-09-05T20:55:39.936Z,20.49
2022-09-05T20:58:11.629Z,20.52
2022-09-05T21:01:02.399Z,20.35
2022-09-05T21:03:38.242Z,20.39
2022-09-05T21:06:23.715Z,20.33
2022-09-05T21:08:55.477Z,20.41
2022-09-05T21:11:31.998Z,20.44
2022-09-05T21:14:04.513Z,20.34
2022-09-05T21:16:36.807Z,20.43
2022-09-05T21:19:05.761Z,20.45
2022-09-05T21:21:36.140Z,20.28
2022-09-05T21:24:17.766Z,20.33
2022-09-05T21:26:51.141Z,20.35
2022-09-05T21:29:32.613Z,20.31
2022-09-05T21:32:10.795Z,20.19
2022-09-05T21:34:44.727Z,20.32
2022-09-05T21:37:17.279Z,20.34
2022-09-05T21:39:58.760Z,20.27
2022-09-05T21:47:05.519Z,20.26
2022-09-05T21:47:42.056Z,20.24
2022-09-05T21:48:11.938Z,20.11
2022-09-05T21:50:44.437Z,20.12
2022-09-05T21:57:25.006Z,20.04
2022-09-05T21:59:29.145Z,19.99
2022-09-05T21:59:29.948Z,19.99
2022-09-05T22:01:58.059Z,19.96
2022-09-05T22:04:26.783Z,19.98
2022-09-05T22:07:03.791Z,19.91
2022-09-05T22:09:33.681Z,19.96
2022-09-05T22:12:03.901Z,19.92
2022-09-05T22:14:50.565Z,19.95
2022-09-05T22:17:22.422Z,19.96
2022-09-05T22:19:50.983Z,19.97
2022-09-05T22:22:20.987Z,19.88
2022-09-05T22:24:54.500Z,19.99
2022-09-05T22:27:25.976Z,19.94
2022-09-05T22:29:57.469Z,19.93
2022-09-05T22:32:35.113Z,19.92
2022-09-05T22:35:27.276Z,19.89
2022-09-05T22:38:01.320Z,19.93
2022-09-05T22:40:32.302Z,19.89
2022-09-05T22:43:02.438Z,19.82
2022-09-05T22:45:33.568Z,19.91
2022-09-05T22:48:08.293Z,19.91
2022-09-05T22:50:37.249Z,19.96
2022-09-05T22:53:07.142Z,19.99
2022-09-05T22:55:38.056Z,20.20
2022-09-05T22:58:07.933Z,20.25
2022-09-05T23:00:36.954Z,20.32
2022-09-05T23:03:07.347Z,20.37
2022-09-05T23:05:36.495Z,20.46
2022-09-05T23:08:06.604Z,20.40
2022-09-05T23:10:37.670Z,20.43
2022-09-05T23:13:08.135Z,20.46
2022-09-05T23:15:37.272Z,20.52
2022-09-05T23:18:06.732Z,20.51
2022-09-05T23:20:36.049Z,20.56
2022-09-05T23:23:06.726Z,20.54
2022-09-05T23:25:37.383Z,20.59
2022-09-05T23:28:07.196Z,20.57
2022-09-05T23:30:36.402Z,20.54
2022-09-05T23:33:07.538Z,20.37
2022-09-05T23:35:36.680Z,20.36
2022-09-05T23:38:10.420Z,20.53
2022-09-05T23:40:40.560Z,20.65
2022-09-05T23:43:09.396Z,20.68
2022-09-05T23:45:38.178Z,20.60
2022-09-05T23:48:06.739Z,20.65
2022-09-05T23:50:35.282Z,20.63
2022-09-05T23:53:04.938Z,20.62
2022-09-05T23:55:33.954Z,20.64
2022-09-05T23:58:03.881Z,20.68
